Pine Neck, New York
Current Conditions -  °F | °C
As of 3:53 AM on Wednesday 22 Oct 2014 (Local Time) from KFOK Reporting Station
Overcast Overcast  
Wind Chill: 58°   Ceiling: 1100
Heat Index: 58°   Visibility: 10mi
Dew Point: 55°   Wind: 14mph
Humidity: 90%   Direction: 40°NE
Pressure: 29.88"   Gusts: NA
Location:  40.9692°N, 72.306°W
Report Text: KFOK 220753Z 04012KT 10SM OVC011 14/13 A2988 RMK AO2 SLP119 T01440128
Loading
Personal Weather Stations






























Interactive Weather Map New forecast layout! Learn more

10-Day Weather Forecast

Advertisements
Track Severe Weather on mobile